Time;durP1;ratioP1;P1;durP2;ratioP2;P2;SDS_P1;SDS_P2;PMS_P1;PMS_P2;Temp;Humidity;BMP_temperature;BMP_pressure;BME280_temperature;BME280_humidity;BME280_pressure;Samples;Min_cycle;Max_cycle;Signal;HPM_P1;HPM_P2
2021/12/11 00:00:40;;;;;;;75.70;44.20;;;;;;;;;;4967061;28;20460;-79
2021/12/11 00:03:12;;;;;;;54.47;36.03;;;;;;;;;;4976440;28;20449;-79
2021/12/11 00:05:39;;;;;;;54.03;35.87;;;;;;;;;;4983887;28;21152;-79
2021/12/11 00:08:08;;;;;;;62.07;39.37;;;;;;;;;;4982258;28;21206;-79
2021/12/11 00:10:37;;;;;;;68.50;42.20;;;;;;;;;;4970059;28;20405;-79
2021/12/11 00:13:09;;;;;;;66.63;41.67;;;;;;;;;;4979721;28;20432;-79
2021/12/11 00:15:37;;;;;;;69.17;42.10;;;;;;;;;;4962949;28;20404;-79
2021/12/11 00:18:09;;;;;;;67.70;41.43;;;;;;;;;;4981456;28;20492;-79
2021/12/11 00:20:36;;;;;;;62.73;39.03;;;;;;;;;;4980031;28;20480;-79
2021/12/11 00:23:05;;;;;;;69.60;42.07;;;;;;;;;;4964665;28;20475;-79
2021/12/11 00:25:31;;;;;;;58.80;38.17;;;;;;;;;;4981389;28;21186;-79
2021/12/11 00:28:04;;;;;;;67.67;40.70;;;;;;;;;;4982503;28;21229;-79
2021/12/11 00:30:33;;;;;;;73.53;43.63;;;;;;;;;;4981740;28;20436;-79
2021/12/11 00:33:00;;;;;;;62.77;37.53;;;;;;;;;;4998029;28;20420;-79
2021/12/11 00:35:27;;;;;;;63.60;39.60;;;;;;;;;;4981721;28;20440;-79
2021/12/11 00:37:59;;;;;;;62.83;38.00;;;;;;;;;;4979391;28;20472;-79
2021/12/11 00:40:26;;;;;;;70.20;41.30;;;;;;;;;;4963382;28;21307;-79
2021/12/11 00:42:56;;;;;;;55.33;35.17;;;;;;;;;;4978778;28;20457;-79
2021/12/11 00:45:24;;;;;;;74.73;43.63;;;;;;;;;;4980325;28;20447;-79
2021/12/11 00:47:52;;;;;;;55.10;35.10;;;;;;;;;;4980522;28;21250;-79
2021/12/11 00:50:20;;;;;;;68.10;40.60;;;;;;;;;;4980871;28;20432;-79
2021/12/11 00:52:48;;;;;;;71.93;43.67;;;;;;;;;;4981900;28;20420;-79
2021/12/11 00:55:23;;;;;;;58.13;35.77;;;;;;;;;;4981218;28;20412;-78
2021/12/11 00:58:00;;;;;;;71.27;40.30;;;;;;;;;;4993768;28;20412;-79
2021/12/11 01:00:26;;;;;;;64.00;36.93;;;;;;;;;;4980339;28;20452;-79
2021/12/11 01:02:54;;;;;;;63.20;38.70;;;;;;;;;;4980012;28;20432;-79
2021/12/11 01:05:20;;;;;;;57.97;36.97;;;;;;;;;;4983379;28;20404;-79
2021/12/11 01:07:46;;;;;;;68.87;41.23;;;;;;;;;;4980070;28;21633;-79
2021/12/11 01:10:27;;;;;;;64.03;40.37;;;;;;;;;;4980787;28;20446;-79
2021/12/11 01:12:59;;;;;;;64.63;40.07;;;;;;;;;;4976274;28;20425;-79
2021/12/11 01:15:48;;;;;;;60.13;38.07;;;;;;;;;;4979904;28;20524;-79
2021/12/11 01:21:04;;;;;;;69.27;40.57;;;;;;;;;;4976967;28;20457;-79
2021/12/11 01:26:06;;;;;;;69.43;41.97;;;;;;;;;;4978150;28;21444;-79
2021/12/11 01:28:32;;;;;;;67.37;40.23;;;;;;;;;;4983039;28;20511;-79
2021/12/11 01:30:59;;;;;;;69.10;41.33;;;;;;;;;;4968038;28;21265;-80
2021/12/11 01:33:26;;;;;;;64.27;39.23;;;;;;;;;;4984015;28;20486;-79
2021/12/11 01:35:52;;;;;;;69.30;42.77;;;;;;;;;;4979140;28;20424;-79
2021/12/11 01:38:29;;;;;;;62.90;37.43;;;;;;;;;;4977733;28;20571;-78
2021/12/11 01:40:57;;;;;;;65.33;39.90;;;;;;;;;;4983637;28;21194;-79
2021/12/11 01:43:24;;;;;;;54.57;35.43;;;;;;;;;;4977800;28;20420;-79
2021/12/11 01:45:52;;;;;;;63.27;38.80;;;;;;;;;;4980715;28;20408;-79
2021/12/11 01:48:19;;;;;;;70.23;41.43;;;;;;;;;;4977023;28;20426;-79
2021/12/11 01:50:47;;;;;;;72.20;42.00;;;;;;;;;;4981253;28;20420;-79
2021/12/11 01:53:17;;;;;;;60.00;36.90;;;;;;;;;;4981894;28;20424;-79
2021/12/11 01:55:46;;;;;;;71.33;42.33;;;;;;;;;;4977400;28;20513;-79
2021/12/11 01:58:14;;;;;;;63.07;39.03;;;;;;;;;;4980221;28;20432;-79
2021/12/11 02:00:44;;;;;;;65.00;40.80;;;;;;;;;;4981118;28;20497;-80
2021/12/11 02:03:12;;;;;;;61.13;38.07;;;;;;;;;;4985077;28;21275;-80
2021/12/11 02:05:39;;;;;;;56.47;36.17;;;;;;;;;;4984060;28;21403;-80
2021/12/11 02:08:08;;;;;;;60.33;36.93;;;;;;;;;;4983534;28;20427;-80
2021/12/11 02:10:39;;;;;;;62.27;38.87;;;;;;;;;;4982464;28;20499;-80
2021/12/11 02:13:09;;;;;;;55.67;34.70;;;;;;;;;;4967413;28;20499;-79
2021/12/11 02:15:41;;;;;;;59.47;36.60;;;;;;;;;;4982926;28;20429;-80
2021/12/11 02:18:12;;;;;;;59.10;36.90;;;;;;;;;;4983595;28;20565;-80
2021/12/11 02:20:41;;;;;;;64.13;37.23;;;;;;;;;;4977958;28;20563;-80
2021/12/11 02:23:07;;;;;;;53.30;34.07;;;;;;;;;;4984316;28;20417;-80
2021/12/11 02:25:37;;;;;;;65.67;40.23;;;;;;;;;;4982668;28;21182;-80
2021/12/11 02:28:07;;;;;;;58.97;38.33;;;;;;;;;;4998099;28;20437;-80
2021/12/11 02:30:35;;;;;;;68.20;40.43;;;;;;;;;;4972552;28;21264;-80
2021/12/11 02:33:07;;;;;;;72.00;42.60;;;;;;;;;;4985013;28;20514;-80
2021/12/11 02:35:41;;;;;;;62.67;38.53;;;;;;;;;;4980808;28;20456;-80
2021/12/11 02:38:19;;;;;;;65.73;40.23;;;;;;;;;;4983887;28;20906;-80
2021/12/11 02:41:08;;;;;;;61.60;37.70;;;;;;;;;;4986640;28;20570;-80
2021/12/11 02:43:37;;;;;;;68.57;41.37;;;;;;;;;;4960369;28;20417;-80
2021/12/11 02:46:26;;;;;;;63.37;39.50;;;;;;;;;;4983794;28;20412;-80
2021/12/11 02:48:52;;;;;;;65.57;41.80;;;;;;;;;;4958850;28;20425;-80
2021/12/11 02:51:38;;;;;;;68.40;43.33;;;;;;;;;;4986292;28;20412;-80
2021/12/11 02:54:04;;;;;;;78.43;45.50;;;;;;;;;;4980594;28;20420;-80
2021/12/11 02:56:34;;;;;;;68.73;43.23;;;;;;;;;;4995261;28;20428;-80
2021/12/11 02:59:03;;;;;;;73.43;44.77;;;;;;;;;;4982697;28;20534;-80
2021/12/11 03:01:33;;;;;;;66.73;42.13;;;;;;;;;;4969930;28;20483;-79
2021/12/11 03:04:05;;;;;;;79.80;47.07;;;;;;;;;;4986272;28;20423;-80
2021/12/11 03:06:39;;;;;;;76.97;46.07;;;;;;;;;;4982650;28;20421;-80
2021/12/11 03:09:06;;;;;;;72.00;42.57;;;;;;;;;;4966355;28;20535;-79
2021/12/11 03:11:33;;;;;;;73.90;44.17;;;;;;;;;;4984804;28;21199;-80
2021/12/11 03:14:03;;;;;;;71.80;44.10;;;;;;;;;;4983900;28;20555;-80
2021/12/11 03:16:30;;;;;;;73.90;43.73;;;;;;;;;;4979309;28;20448;-80
2021/12/11 03:18:57;;;;;;;67.93;40.77;;;;;;;;;;4982407;28;20490;-80
2021/12/11 03:21:23;;;;;;;64.87;39.63;;;;;;;;;;4985929;28;20469;-81
2021/12/11 03:23:49;;;;;;;68.50;42.10;;;;;;;;;;4983531;28;20865;-80
2021/12/11 03:26:16;;;;;;;65.77;41.53;;;;;;;;;;4966131;28;20913;-80
2021/12/11 03:28:42;;;;;;;71.30;42.90;;;;;;;;;;4975853;28;20420;-80
2021/12/11 03:31:09;;;;;;;65.27;40.50;;;;;;;;;;4987257;28;20502;-80
2021/12/11 03:33:37;;;;;;;70.70;44.13;;;;;;;;;;4987082;28;20420;-80
2021/12/11 03:36:04;;;;;;;69.10;43.23;;;;;;;;;;4984974;28;20984;-80
2021/12/11 03:38:31;;;;;;;73.90;45.17;;;;;;;;;;4988721;28;20420;-80
2021/12/11 03:40:57;;;;;;;76.77;45.77;;;;;;;;;;4982801;28;20461;-80
2021/12/11 03:43:24;;;;;;;83.50;48.50;;;;;;;;;;4985260;28;20413;-79
2021/12/11 03:45:52;;;;;;;76.50;46.23;;;;;;;;;;4986537;28;20424;-80
2021/12/11 03:48:23;;;;;;;71.87;44.33;;;;;;;;;;4987409;28;20424;-80
2021/12/11 03:50:50;;;;;;;73.90;45.17;;;;;;;;;;4986092;28;20429;-80
2021/12/11 03:53:16;;;;;;;75.70;45.67;;;;;;;;;;4987110;28;20491;-80
2021/12/11 03:55:44;;;;;;;79.40;47.10;;;;;;;;;;4984760;28;20503;-80
2021/12/11 03:58:11;;;;;;;73.63;45.40;;;;;;;;;;4987506;28;20420;-80
2021/12/11 04:00:49;;;;;;;72.77;44.50;;;;;;;;;;4983770;28;20463;-80
2021/12/11 04:03:17;;;;;;;70.33;42.17;;;;;;;;;;4984767;28;20420;-80
2021/12/11 04:05:43;;;;;;;66.33;40.43;;;;;;;;;;4981929;28;21297;-80
2021/12/11 04:08:11;;;;;;;66.50;41.93;;;;;;;;;;4985292;28;20459;-80
2021/12/11 04:10:38;;;;;;;65.53;40.77;;;;;;;;;;4984886;28;20412;-80
2021/12/11 04:13:05;;;;;;;69.90;41.00;;;;;;;;;;4980493;28;20412;-80
2021/12/11 04:15:31;;;;;;;72.77;43.90;;;;;;;;;;4984424;28;20919;-80
2021/12/11 04:17:57;;;;;;;78.33;46.83;;;;;;;;;;4985949;28;20694;-80
2021/12/11 04:20:31;;;;;;;72.40;43.17;;;;;;;;;;4985800;28;20456;-80
2021/12/11 04:22:57;;;;;;;63.27;39.20;;;;;;;;;;4984374;28;20444;-80
2021/12/11 04:25:25;;;;;;;61.67;39.57;;;;;;;;;;4985336;28;20413;-80
2021/12/11 04:27:51;;;;;;;55.40;35.43;;;;;;;;;;4966264;28;20436;-80
2021/12/11 04:30:18;;;;;;;67.73;41.63;;;;;;;;;;4986976;28;20420;-80
2021/12/11 04:32:45;;;;;;;75.00;45.83;;;;;;;;;;4982317;28;20529;-80
2021/12/11 04:35:13;;;;;;;70.33;43.30;;;;;;;;;;4983871;28;20413;-80
2021/12/11 04:37:40;;;;;;;73.20;44.63;;;;;;;;;;4963862;28;20484;-80
2021/12/11 04:40:10;;;;;;;69.20;42.07;;;;;;;;;;4980832;28;20471;-80
2021/12/11 04:45:29;;;;;;;68.53;43.50;;;;;;;;;;4983877;28;20404;-80
2021/12/11 04:48:03;;;;;;;71.07;43.60;;;;;;;;;;4984817;28;20424;-79
2021/12/11 04:50:39;;;;;;;69.70;43.37;;;;;;;;;;4987246;28;20410;-79
2021/12/11 04:53:19;;;;;;;72.87;44.23;;;;;;;;;;4982383;28;20520;-80
2021/12/11 05:04:10;;;;;;;65.17;40.50;;;;;;;;;;4984625;28;20447;-79
2021/12/11 05:07:00;;;;;;;59.27;36.40;;;;;;;;;;4984453;28;20416;-79
2021/12/11 05:09:35;;;;;;;58.70;36.13;;;;;;;;;;4971677;28;20445;-80
2021/12/11 05:12:18;;;;;;;56.03;34.33;;;;;;;;;;4983107;28;20408;-79
2021/12/11 05:14:45;;;;;;;48.40;31.93;;;;;;;;;;4997797;28;20495;-79
2021/12/11 05:17:12;;;;;;;48.37;31.20;;;;;;;;;;4985516;28;20424;-80
2021/12/11 05:19:38;;;;;;;52.73;32.17;;;;;;;;;;4979707;28;20461;-79
2021/12/11 05:22:05;;;;;;;49.70;32.60;;;;;;;;;;4980848;28;20419;-80
2021/12/11 05:24:32;;;;;;;52.93;33.43;;;;;;;;;;4987347;28;20817;-80
2021/12/11 05:26:58;;;;;;;53.60;34.57;;;;;;;;;;4972733;28;20431;-80
2021/12/11 05:29:24;;;;;;;46.13;28.80;;;;;;;;;;4980648;28;20437;-80
2021/12/11 05:31:50;;;;;;;46.97;30.20;;;;;;;;;;4979594;28;21297;-80
2021/12/11 05:34:17;;;;;;;47.63;30.07;;;;;;;;;;4982395;28;20424;-80
2021/12/11 05:36:45;;;;;;;43.60;27.30;;;;;;;;;;4983346;28;20490;-80
2021/12/11 05:39:16;;;;;;;40.70;25.87;;;;;;;;;;4983876;28;20487;-80
2021/12/11 05:41:44;;;;;;;41.70;24.07;;;;;;;;;;4982010;28;20459;-80
2021/12/11 05:44:11;;;;;;;38.60;24.63;;;;;;;;;;4981046;28;20622;-78
2021/12/11 05:46:37;;;;;;;37.93;24.83;;;;;;;;;;4983521;28;20427;-79
2021/12/11 05:49:04;;;;;;;31.43;21.00;;;;;;;;;;4965635;28;20427;-79
2021/12/11 05:51:37;;;;;;;32.83;21.80;;;;;;;;;;4980893;28;20536;-79
2021/12/11 05:54:03;;;;;;;28.37;19.30;;;;;;;;;;4978296;28;20420;-78
2021/12/11 05:56:34;;;;;;;31.50;20.47;;;;;;;;;;4978968;28;20452;-78
2021/12/11 05:59:01;;;;;;;29.77;19.13;;;;;;;;;;4963805;28;20416;-79
2021/12/11 06:01:30;;;;;;;31.50;19.37;;;;;;;;;;4963567;28;20480;-78
2021/12/11 06:03:57;;;;;;;27.00;17.60;;;;;;;;;;4957963;28;20412;-80
2021/12/11 06:06:23;;;;;;;26.87;18.57;;;;;;;;;;4959698;28;20953;-79
2021/12/11 06:08:49;;;;;;;27.67;18.70;;;;;;;;;;4981764;28;20441;-79
2021/12/11 06:11:16;;;;;;;30.17;19.03;;;;;;;;;;4980145;28;20431;-79
2021/12/11 06:13:43;;;;;;;27.03;17.97;;;;;;;;;;4980874;28;20413;-79
2021/12/11 06:16:09;;;;;;;26.23;17.63;;;;;;;;;;4977731;28;20516;-79
2021/12/11 06:18:35;;;;;;;27.20;19.27;;;;;;;;;;4978397;28;20436;-78
2021/12/11 06:21:02;;;;;;;28.80;18.33;;;;;;;;;;4978548;28;20452;-79
2021/12/11 06:23:28;;;;;;;29.43;19.83;;;;;;;;;;4981562;28;20421;-79
2021/12/11 06:25:55;;;;;;;32.60;20.43;;;;;;;;;;4977390;28;20425;-79
2021/12/11 06:28:22;;;;;;;29.60;19.87;;;;;;;;;;4961729;28;20456;-79
2021/12/11 06:30:48;;;;;;;29.87;19.27;;;;;;;;;;4963829;28;20543;-79
2021/12/11 06:33:14;;;;;;;32.60;21.13;;;;;;;;;;4980874;28;20429;-79
2021/12/11 06:35:40;;;;;;;29.53;18.00;;;;;;;;;;4978927;28;20426;-79
2021/12/11 06:38:07;;;;;;;32.50;21.00;;;;;;;;;;4976845;28;20416;-79
2021/12/11 06:40:33;;;;;;;28.40;19.27;;;;;;;;;;4960772;28;21854;-78
2021/12/11 06:43:00;;;;;;;30.87;20.53;;;;;;;;;;4981373;28;20416;-79
2021/12/11 06:45:27;;;;;;;31.30;20.50;;;;;;;;;;4981139;28;20424;-79
2021/12/11 06:47:54;;;;;;;30.63;20.53;;;;;;;;;;4958039;28;21377;-79
2021/12/11 06:50:20;;;;;;;30.93;19.73;;;;;;;;;;4995205;28;20432;-79
2021/12/11 06:52:48;;;;;;;29.17;19.50;;;;;;;;;;4959254;28;20453;-79
2021/12/11 06:55:15;;;;;;;32.23;20.50;;;;;;;;;;4976868;28;20502;-79
2021/12/11 06:57:41;;;;;;;30.37;19.97;;;;;;;;;;4978293;28;20901;-79
2021/12/11 07:00:07;;;;;;;32.67;19.70;;;;;;;;;;4982829;28;20463;-79
2021/12/11 07:02:33;;;;;;;29.43;19.43;;;;;;;;;;4986664;28;20428;-80
2021/12/11 07:05:00;;;;;;;31.27;20.63;;;;;;;;;;4982923;28;20412;-80
2021/12/11 07:07:32;;;;;;;26.30;18.50;;;;;;;;;;4983476;28;20424;-80
2021/12/11 07:09:58;;;;;;;28.90;19.23;;;;;;;;;;4982271;28;20434;-79
2021/12/11 07:12:24;;;;;;;31.37;19.90;;;;;;;;;;4979032;28;20421;-80
2021/12/11 07:14:51;;;;;;;31.40;19.50;;;;;;;;;;4966465;28;20440;-80
2021/12/11 07:17:18;;;;;;;32.63;20.13;;;;;;;;;;4981289;28;20432;-79
2021/12/11 07:19:44;;;;;;;28.83;18.43;;;;;;;;;;4985363;28;20514;-79
2021/12/11 07:22:11;;;;;;;28.03;17.30;;;;;;;;;;4972819;28;20438;-80
2021/12/11 07:24:38;;;;;;;28.83;17.87;;;;;;;;;;4983128;28;20413;-80
2021/12/11 07:27:06;;;;;;;27.20;17.80;;;;;;;;;;4984038;28;20980;-80
2021/12/11 07:29:32;;;;;;;29.00;18.87;;;;;;;;;;4986175;28;20426;-80
2021/12/11 07:31:59;;;;;;;26.53;17.67;;;;;;;;;;4984018;28;20456;-80
2021/12/11 07:34:25;;;;;;;31.17;19.50;;;;;;;;;;4974101;28;20417;-80
2021/12/11 07:36:52;;;;;;;28.30;18.53;;;;;;;;;;4973696;28;20468;-80
2021/12/11 07:39:19;;;;;;;27.07;17.40;;;;;;;;;;4986675;28;20456;-82
2021/12/11 07:41:45;;;;;;;27.13;17.10;;;;;;;;;;4987252;28;20416;-83
2021/12/11 07:44:11;;;;;;;26.50;16.57;;;;;;;;;;4983762;28;21275;-83
2021/12/11 07:46:41;;;;;;;25.30;17.80;;;;;;;;;;4985094;28;20409;-82
2021/12/11 07:49:11;;;;;;;25.03;16.17;;;;;;;;;;4971695;28;20424;-81
2021/12/11 07:51:37;;;;;;;25.33;16.77;;;;;;;;;;4982485;28;20483;-82
2021/12/11 07:54:04;;;;;;;26.33;18.13;;;;;;;;;;5001422;28;20523;-81
2021/12/11 07:56:30;;;;;;;24.40;16.67;;;;;;;;;;5000260;28;20412;-81
2021/12/11 07:58:59;;;;;;;22.50;14.47;;;;;;;;;;4983638;28;20973;-81
2021/12/11 08:01:25;;;;;;;22.27;15.23;;;;;;;;;;4974780;28;21339;-81
2021/12/11 08:03:51;;;;;;;24.47;15.83;;;;;;;;;;4973699;28;20420;-80
2021/12/11 08:06:17;;;;;;;23.90;17.33;;;;;;;;;;4985452;28;20551;-81
2021/12/11 08:08:46;;;;;;;24.43;17.23;;;;;;;;;;4985225;28;20408;-81
2021/12/11 08:11:38;;;;;;;25.23;16.10;;;;;;;;;;4986022;28;20443;-82
2021/12/11 08:14:10;;;;;;;23.40;16.80;;;;;;;;;;4985935;28;20456;-82
2021/12/11 08:16:47;;;;;;;21.50;15.10;;;;;;;;;;4981147;28;21226;-81
2021/12/11 08:19:18;;;;;;;20.70;14.93;;;;;;;;;;4987610;28;20572;-81
2021/12/11 08:21:45;;;;;;;21.00;14.00;;;;;;;;;;4998644;28;20432;-81
2021/12/11 08:24:16;;;;;;;18.30;13.30;;;;;;;;;;4981846;28;20411;-82
2021/12/11 08:27:06;;;;;;;19.83;13.60;;;;;;;;;;4984023;28;21413;-82
2021/12/11 08:29:42;;;;;;;20.37;13.97;;;;;;;;;;4998000;28;20427;-82
2021/12/11 08:32:09;;;;;;;20.53;14.60;;;;;;;;;;4986590;28;20428;-82
2021/12/11 08:34:42;;;;;;;23.50;16.17;;;;;;;;;;4985929;28;20412;-81
2021/12/11 08:37:21;;;;;;;22.03;14.77;;;;;;;;;;4982652;28;20568;-81
2021/12/11 08:40:20;;;;;;;;;;;;;;;;;;;;;
2021/12/11 08:42:47;;;;;;;16.00;11.50;;;;;;;;;;4965580;28;21150;-81
2021/12/11 08:45:21;;;;;;;18.47;12.20;;;;;;;;;;4987771;28;21354;-81
2021/12/11 08:48:01;;;;;;;17.07;11.73;;;;;;;;;;4983097;28;20420;-81
2021/12/11 08:50:50;;;;;;;19.27;11.97;;;;;;;;;;4985825;28;20424;-81
2021/12/11 08:53:44;;;;;;;;;;;;;;;;;;;;;
2021/12/11 08:56:31;;;;;;;16.77;10.63;;;;;;;;;;4985754;28;20867;-81
2021/12/11 08:59:07;;;;;;;;;;;;;;;;;;;;;
2021/12/11 09:01:42;;;;;;;16.93;10.33;;;;;;;;;;4981593;28;20430;-82
2021/12/11 09:04:12;;;;;;;22.57;12.03;;;;;;;;;;4966717;28;20527;-81
2021/12/11 09:06:50;;;;;;;16.27;11.53;;;;;;;;;;4986775;28;21281;-82
2021/12/11 09:09:24;;;;;;;17.63;12.87;;;;;;;;;;4965754;28;20490;-82
2021/12/11 09:11:54;;;;;;;14.40;10.80;;;;;;;;;;4983064;28;20454;-82
2021/12/11 09:14:29;;;;;;;15.77;12.03;;;;;;;;;;4981181;28;20456;-81
2021/12/11 09:17:00;;;;;;;16.33;11.93;;;;;;;;;;4985618;28;20420;-81
2021/12/11 09:19:48;;;;;;;14.93;10.43;;;;;;;;;;5001119;28;21614;-81
2021/12/11 09:22:21;;;;;;;15.30;11.03;;;;;;;;;;4982809;28;20429;-82
2021/12/11 09:24:51;;;;;;;15.07;10.70;;;;;;;;;;4980759;28;20424;-81
2021/12/11 09:27:40;;;;;;;13.37;9.97;;;;;;;;;;4969579;28;20419;-80
2021/12/11 09:30:26;;;;;;;14.33;10.33;;;;;;;;;;4957009;28;20461;-81
2021/12/11 09:32:55;;;;;;;14.03;10.73;;;;;;;;;;4968596;28;20493;-81
2021/12/11 09:35:24;;;;;;;13.77;10.53;;;;;;;;;;4965484;28;20495;-80
2021/12/11 09:37:52;;;;;;;13.33;10.03;;;;;;;;;;4965637;28;21005;-80
2021/12/11 09:40:21;;;;;;;13.47;9.60;;;;;;;;;;4971369;28;20448;-81
2021/12/11 09:42:47;;;;;;;14.30;10.77;;;;;;;;;;4983997;28;20424;-80
2021/12/11 09:45:19;;;;;;;13.77;10.03;;;;;;;;;;4985733;28;20463;-82
2021/12/11 09:47:51;;;;;;;14.20;9.63;;;;;;;;;;4966373;28;20969;-81
2021/12/11 09:50:19;;;;;;;14.33;10.07;;;;;;;;;;4983233;28;20736;-82
2021/12/11 09:52:46;;;;;;;13.00;9.90;;;;;;;;;;4982354;28;20417;-83
2021/12/11 09:55:20;;;;;;;13.03;9.57;;;;;;;;;;4979992;28;20436;-83
2021/12/11 09:57:48;;;;;;;14.83;10.20;;;;;;;;;;4982672;28;20416;-83
2021/12/11 10:00:19;;;;;;;13.73;9.53;;;;;;;;;;4976587;28;20448;-83
2021/12/11 10:02:46;;;;;;;13.03;9.80;;;;;;;;;;4969768;28;20476;-83
2021/12/11 10:05:29;;;;;;;14.30;9.87;;;;;;;;;;4964547;28;21411;-83
2021/12/11 10:08:26;;;;;;;13.23;10.10;;;;;;;;;;4982062;28;20452;-83
2021/12/11 10:10:49;;;;;;;13.83;9.80;;;;;;;;;;4982834;28;20420;-83
2021/12/11 10:13:15;;;;;;;14.00;9.30;;;;;;;;;;4983878;28;20876;-83
2021/12/11 10:15:44;;;;;;;16.23;11.13;;;;;;;;;;4973752;28;20412;-83
2021/12/11 10:18:13;;;;;;;12.23;9.40;;;;;;;;;;4982405;28;20531;-83
2021/12/11 10:20:41;;;;;;;14.90;11.17;;;;;;;;;;4978561;28;21324;-82
2021/12/11 10:23:09;;;;;;;11.70;8.50;;;;;;;;;;4982763;28;20431;-83
2021/12/11 10:25:36;;;;;;;11.90;7.97;;;;;;;;;;4980635;28;20420;-81
2021/12/11 10:28:04;;;;;;;10.43;8.00;;;;;;;;;;4981927;28;20721;-82
2021/12/11 10:30:32;;;;;;;11.43;8.43;;;;;;;;;;4976043;28;20424;-81
2021/12/11 10:32:58;;;;;;;13.30;9.03;;;;;;;;;;4982413;28;21187;-82
2021/12/11 10:35:27;;;;;;;12.07;8.87;;;;;;;;;;4973997;28;22250;-82
2021/12/11 10:37:53;;;;;;;14.43;10.10;;;;;;;;;;4981875;28;20428;-80
2021/12/11 10:40:22;;;;;;;11.83;8.60;;;;;;;;;;4962997;28;21650;-81
2021/12/11 10:43:09;;;;;;;11.73;8.20;;;;;;;;;;4984111;28;20435;-82
2021/12/11 10:45:35;;;;;;;10.80;8.37;;;;;;;;;;4983726;28;20434;-81
2021/12/11 10:48:05;;;;;;;11.47;8.27;;;;;;;;;;4979286;28;20428;-81
2021/12/11 10:50:35;;;;;;;12.33;8.50;;;;;;;;;;4968744;28;21162;-81
2021/12/11 10:53:02;;;;;;;10.87;8.03;;;;;;;;;;4964162;28;20424;-81
2021/12/11 10:55:31;;;;;;;10.93;8.23;;;;;;;;;;4981327;28;20424;-81
2021/12/11 10:58:00;;;;;;;10.10;7.00;;;;;;;;;;4979275;28;21294;-81
2021/12/11 11:00:38;;;;;;;10.73;8.33;;;;;;;;;;4979265;28;20452;-81
2021/12/11 11:03:07;;;;;;;11.83;7.87;;;;;;;;;;4979903;28;20486;-81
2021/12/11 11:05:34;;;;;;;9.83;7.50;;;;;;;;;;4980536;28;20602;-81
2021/12/11 11:08:00;;;;;;;10.43;7.13;;;;;;;;;;4972598;28;20415;-81
2021/12/11 11:10:30;;;;;;;9.27;6.87;;;;;;;;;;4963443;28;20507;-80
2021/12/11 11:12:58;;;;;;;8.63;6.63;;;;;;;;;;4965032;28;20540;-80
2021/12/11 11:15:24;;;;;;;10.83;6.27;;;;;;;;;;4981326;28;20499;-80
2021/12/11 11:17:51;;;;;;;7.77;6.00;;;;;;;;;;4992997;28;20460;-81
2021/12/11 11:20:19;;;;;;;9.93;6.67;;;;;;;;;;4963926;28;20476;-80
2021/12/11 11:22:45;;;;;;;12.80;6.83;;;;;;;;;;4982197;28;20509;-81
2021/12/11 11:25:18;;;;;;;10.67;7.07;;;;;;;;;;4961738;28;20427;-81
2021/12/11 11:27:46;;;;;;;9.00;6.57;;;;;;;;;;4969130;28;20428;-81
2021/12/11 11:30:16;;;;;;;8.70;6.43;;;;;;;;;;4976956;28;20416;-81
2021/12/11 11:32:42;;;;;;;9.07;6.07;;;;;;;;;;4983669;28;20431;-81
2021/12/11 11:35:11;;;;;;;8.53;5.83;;;;;;;;;;4983771;28;20431;-82
2021/12/11 11:37:38;;;;;;;8.57;6.50;;;;;;;;;;4977835;28;21203;-80
2021/12/11 11:40:06;;;;;;;9.23;6.43;;;;;;;;;;4978557;28;20459;-80
2021/12/11 11:42:32;;;;;;;8.53;5.87;;;;;;;;;;4974112;28;20505;-79
2021/12/11 11:44:59;;;;;;;9.30;5.67;;;;;;;;;;4965552;28;20431;-80
2021/12/11 11:47:25;;;;;;;8.33;6.20;;;;;;;;;;4984400;28;20818;-81
2021/12/11 11:49:58;;;;;;;7.83;5.70;;;;;;;;;;4982460;28;21098;-81
2021/12/11 11:52:24;;;;;;;8.07;5.77;;;;;;;;;;4968728;28;20431;-81
2021/12/11 11:54:52;;;;;;;11.30;6.57;;;;;;;;;;4981084;28;20514;-81
2021/12/11 11:57:20;;;;;;;8.20;6.10;;;;;;;;;;4980259;28;20421;-82
2021/12/11 11:59:49;;;;;;;9.57;6.30;;;;;;;;;;4982658;28;20567;-82
2021/12/11 12:02:17;;;;;;;8.77;6.67;;;;;;;;;;4981002;28;20448;-82
2021/12/11 12:04:44;;;;;;;10.40;6.00;;;;;;;;;;4986723;28;21013;-82
2021/12/11 12:07:11;;;;;;;11.40;6.90;;;;;;;;;;4965958;28;20901;-82
2021/12/11 12:09:39;;;;;;;9.03;6.90;;;;;;;;;;4985363;28;20420;-82
2021/12/11 12:12:06;;;;;;;10.33;6.97;;;;;;;;;;4985252;28;20473;-81
2021/12/11 12:14:34;;;;;;;15.93;7.43;;;;;;;;;;4989090;28;20520;-81
2021/12/11 12:17:00;;;;;;;13.07;7.50;;;;;;;;;;4996393;28;20602;-81
2021/12/11 12:19:30;;;;;;;9.53;7.07;;;;;;;;;;4964933;28;21145;-81
2021/12/11 12:21:58;;;;;;;9.40;5.80;;;;;;;;;;4967772;28;20432;-81
2021/12/11 12:24:25;;;;;;;12.30;6.67;;;;;;;;;;4962880;28;20433;-82
2021/12/11 12:26:52;;;;;;;9.47;6.97;;;;;;;;;;4966149;28;20788;-82
2021/12/11 12:29:20;;;;;;;11.37;6.70;;;;;;;;;;4991049;28;20436;-82
2021/12/11 12:31:51;;;;;;;9.63;6.73;;;;;;;;;;4979018;28;20421;-81
2021/12/11 12:34:20;;;;;;;11.70;7.10;;;;;;;;;;4985959;28;20935;-81
2021/12/11 12:36:46;;;;;;;11.87;6.67;;;;;;;;;;4981306;28;20416;-81
2021/12/11 12:39:14;;;;;;;9.53;7.17;;;;;;;;;;4967381;28;20515;-81
2021/12/11 12:41:44;;;;;;;10.63;7.20;;;;;;;;;;4982854;28;20424;-83
2021/12/11 12:44:19;;;;;;;9.53;7.40;;;;;;;;;;4978947;28;20506;-82
2021/12/11 12:46:52;;;;;;;10.33;6.83;;;;;;;;;;4983508;28;20737;-82
2021/12/11 12:49:18;;;;;;;10.93;7.50;;;;;;;;;;4963353;28;20428;-82
2021/12/11 12:51:45;;;;;;;10.43;7.33;;;;;;;;;;4981007;28;20431;-82
2021/12/11 12:54:13;;;;;;;8.30;6.80;;;;;;;;;;4970860;28;20448;-83
2021/12/11 12:56:45;;;;;;;11.40;7.43;;;;;;;;;;4966844;28;21190;-83
2021/12/11 12:59:16;;;;;;;10.73;8.03;;;;;;;;;;4982783;28;20479;-83
2021/12/11 13:01:44;;;;;;;9.63;7.43;;;;;;;;;;4980020;28;20584;-83
2021/12/11 13:04:13;;;;;;;11.40;7.67;;;;;;;;;;4982403;28;20540;-83
2021/12/11 13:06:43;;;;;;;8.87;6.77;;;;;;;;;;4979613;28;20426;-83
2021/12/11 13:09:09;;;;;;;11.60;7.90;;;;;;;;;;4981371;28;20424;-83
2021/12/11 13:11:51;;;;;;;10.80;7.80;;;;;;;;;;4981735;28;20507;-82
2021/12/11 13:14:17;;;;;;;10.30;7.77;;;;;;;;;;4981789;28;20543;-82
2021/12/11 13:16:45;;;;;;;11.03;7.60;;;;;;;;;;4981740;28;20732;-82
2021/12/11 13:19:14;;;;;;;11.90;7.70;;;;;;;;;;4981291;28;20440;-82
2021/12/11 13:21:43;;;;;;;11.93;7.33;;;;;;;;;;4978807;28;20443;-83
2021/12/11 13:24:10;;;;;;;10.87;8.03;;;;;;;;;;4978909;28;20417;-82
2021/12/11 13:26:38;;;;;;;14.03;7.83;;;;;;;;;;4982898;28;21007;-82
2021/12/11 13:29:10;;;;;;;10.80;7.73;;;;;;;;;;4982421;28;20519;-82
2021/12/11 13:31:39;;;;;;;11.33;8.23;;;;;;;;;;4960587;28;20851;-82
2021/12/11 13:34:08;;;;;;;9.67;7.53;;;;;;;;;;4983294;28;20421;-82
2021/12/11 13:36:34;;;;;;;11.93;7.40;;;;;;;;;;4978185;28;21333;-82
2021/12/11 13:39:01;;;;;;;9.77;7.33;;;;;;;;;;4982347;28;20440;-82
2021/12/11 13:41:33;;;;;;;9.60;7.20;;;;;;;;;;4966808;28;20456;-82
2021/12/11 13:44:00;;;;;;;11.87;7.97;;;;;;;;;;4980509;28;20467;-82
2021/12/11 13:46:29;;;;;;;14.60;8.73;;;;;;;;;;4982424;28;20424;-82
2021/12/11 13:48:56;;;;;;;14.90;9.70;;;;;;;;;;4982295;28;20454;-82
2021/12/11 13:51:25;;;;;;;14.53;8.87;;;;;;;;;;4964202;28;20433;-81
2021/12/11 13:53:53;;;;;;;12.47;8.23;;;;;;;;;;4979303;28;20436;-82
2021/12/11 13:56:23;;;;;;;12.03;8.30;;;;;;;;;;4979142;28;20432;-82
2021/12/11 13:58:49;;;;;;;11.00;8.20;;;;;;;;;;4969564;28;20514;-81
2021/12/11 14:01:22;;;;;;;10.73;7.63;;;;;;;;;;4980707;28;20447;-81
2021/12/11 14:03:49;;;;;;;11.50;7.97;;;;;;;;;;4980738;28;20439;-81
2021/12/11 14:06:16;;;;;;;10.37;7.57;;;;;;;;;;4961186;28;20427;-81
2021/12/11 14:08:43;;;;;;;9.07;7.20;;;;;;;;;;4965565;28;20432;-81
2021/12/11 14:11:11;;;;;;;11.13;8.20;;;;;;;;;;4980413;28;20431;-81
2021/12/11 14:13:37;;;;;;;12.23;7.90;;;;;;;;;;4976958;28;20444;-82
2021/12/11 14:16:05;;;;;;;12.73;8.47;;;;;;;;;;4961446;28;20433;-81
2021/12/11 14:18:32;;;;;;;13.40;8.03;;;;;;;;;;4980740;28;20535;-82
2021/12/11 14:20:59;;;;;;;11.93;8.07;;;;;;;;;;4963829;28;20448;-82
2021/12/11 14:23:29;;;;;;;11.20;8.20;;;;;;;;;;4968927;28;20528;-81
2021/12/11 14:25:56;;;;;;;11.20;8.10;;;;;;;;;;4979230;28;20447;-82
2021/12/11 14:28:24;;;;;;;13.93;8.57;;;;;;;;;;4967611;28;20433;-82
2021/12/11 14:30:52;;;;;;;13.43;8.60;;;;;;;;;;4963177;28;21586;-81
2021/12/11 14:33:19;;;;;;;10.03;8.47;;;;;;;;;;4976657;28;20440;-81
2021/12/11 14:35:45;;;;;;;10.40;8.40;;;;;;;;;;4980450;28;20750;-83
2021/12/11 14:38:12;;;;;;;11.20;8.50;;;;;;;;;;4979445;28;20492;-81
2021/12/11 14:40:40;;;;;;;10.70;8.43;;;;;;;;;;4979730;28;20550;-81
2021/12/11 14:43:06;;;;;;;12.50;8.47;;;;;;;;;;4982928;28;20512;-81
2021/12/11 14:45:35;;;;;;;14.70;8.90;;;;;;;;;;4980437;28;21110;-81
2021/12/11 14:48:01;;;;;;;14.30;9.10;;;;;;;;;;4994603;28;20437;-81
2021/12/11 14:50:30;;;;;;;11.63;9.10;;;;;;;;;;4979779;28;20433;-82
2021/12/11 14:52:57;;;;;;;12.77;9.03;;;;;;;;;;4976768;28;20456;-82
2021/12/11 14:55:26;;;;;;;12.97;8.93;;;;;;;;;;4976915;28;20532;-80